Observations for NEWCASTLE, United Kingdom (EGNT)

EGNT 201950Z 22011KT 180V240 9999 FEW020 SCT040 10/07 Q1012 
EGNT 201920Z 22012KT 180V260 9999 SCT020 10/07 Q1012
EGNT 201850Z 22013KT 9999 SCT021 11/07 Q1012
EGNT 201820Z 22014KT 9999 SCT020 10/07 Q1012
EGNT 201750Z 23016KT 9999 FEW021 10/07 Q1012
EGNT 201720Z 23015KT 9999 FEW021 10/07 Q1011
EGNT 201650Z 22017KT 9999 FEW021 11/07 Q1011
EGNT 201620Z 22017KT 9999 FEW025 10/07 Q1011
EGNT 201550Z 22010KT 180V240 9999 FEW025 10/07 Q1011
EGNT 201520Z 21013KT 170V240 9999 4000E -RA FEW025 10/07 Q1011  
EGNT 201450Z 23014KT 200V260 8000 -SHRA FEW022 10/07 Q1011  
EGNT 201420Z 21016KT 170V260 9999 -SHRA FEW022 11/07 Q1011  
EGNT 201350Z 22012G22KT 9999 -SHRA FEW020 11/07 Q1011   
EGNT 201320Z 22014KT 160V250 9999 FEW020 11/07 Q1011
EGNT 201250Z 22013KT 190V260 9999 -RA FEW020 SCT045 11/08 Q1011 
EGNT 201220Z 24014G25KT 200V270 9999 -RA FEW020 11/07 Q1011 
EGNT 201150Z 24021KT 9999 FEW020 11/07 Q1010
EGNT 201120Z 23012KT 200V270 9999 FEW020 11/07 Q1010
EGNT 201050Z 23011KT 180V250 9999 FEW020 11/07 Q1010
EGNT 201020Z 24012KT 180V260 9999 FEW020 11/06 Q1010
EGNT 200950Z 24010G21KT 190V270 9999 FEW020 11/06 Q1010 
EGNT 200920Z 23010KT 200V260 9999 FEW020 10/06 Q1010
EGNT 200850Z 23013KT 200V270 9999 FEW020 10/06 Q1010
EGNT 200820Z 23009KT 190V260 9999 FEW020 10/06 Q1010
EGNT 200750Z 23009KT 200V270 9999 SCT020 10/06 Q1010
EGNT 200720Z 24013KT 9999 FEW020 10/06 Q1009
EGNT 200650Z 24012KT 9999 FEW026 10/06 Q1009
EGNT 200620Z 23010KT 9999 FEW031 10/06 Q1009
EGNT 200550Z 23008KT 200V270 9999 FEW031 09/06 Q1009
EGNT 200520Z 22013KT 9999 SCT031 09/05 Q1009
EGNT 200450Z 23013G23KT 9999 BKN031 09/05 Q1008 
EGNT 200420Z 22009KT 190V260 9999 BKN031 09/05 Q1009
EGNT 200350Z 22010KT 190V250 9999 BKN031 09/05 Q1008
EGNT 200320Z 21012KT 180V240 9999 BKN031 09/05 Q1008
EGNT 200250Z 22013KT 170V250 9999 FEW017 SCT024 09/05 Q1009 
EGNT 200220Z 21008KT 170V260 9999 FEW017 SCT024 08/05 Q1009 
EGNT 200150Z 19007KT 160V230 9999 BKN017 08/05 Q1009
EGNT 200120Z 19008KT 9999 BKN017 08/05 Q1010
EGNT 200050Z 19008KT 130V220 9999 BKN017 07/05 Q1010
EGNT 200020Z 19010KT 150V220 9999 -RA BKN017 07/05 Q1010
EGNT 192350Z 18008KT 9999 -RA BKN017 07/05 Q1010
EGNT 192320Z 17006KT 140V210 9000 RA BKN018 07/05 Q1010 
EGNT 192250Z 17006KT 130V220 9000 RA BKN018 07/05 Q1010 
EGNT 192220Z 17004KT 130V200 9000 RA BKN018 07/05 Q1011 
EGNT 192150Z 18007KT 9999 RA BKN018 07/04 Q1011 
EGNT 192120Z 19007KT 160V230 9999 BKN022 07/04 Q1011
EGNT 192050Z 19008KT 140V220 9999 -RA BKN022 07/04 Q1011
EGNT 192020Z 20006KT 170V240 9999 -RA SCT040 07/04 Q1011
EGNT 191950Z 21006KT 9999 -RA BKN040 07/04 Q1011
EGNT 191920Z 22010KT 9999 -RA BKN040 07/04 Q1011